Latest Weather Observations for Hindmarsh Island

IDS60801

Issued at 7:11 am CDT Tuesday 7 December 2021 (issued every 10 minutes, with the page automatically refreshed every 10 minutes)

About weather observations | Map of weather stations | Latest weather observations for SA | Other Formats
Station Details ID: 023894 Name: HINDMARSH ISLAND AWS Lat: -35.52 Lon: 138.82 Height: 11.0 m
Data from the previous 72 hours. | See also: Recent months at Hindmarsh Island
Date/Time
CDT
Temp
°C
App
Temp
°C
Dew
Point
°C
Rel
Hum
%
Delta-T
°C
Wind Press
QNH
hPa
Press
MSL
hPa
Rain since
9am
mm
Dir  Spd
km/h
Gust
km/h
Spd
kts
Gust
kts
07/07:00am 14.7 7.9 9.1 69 2.9 S 35 43 19 23 1015.0 1015.0 0.4
07/06:30am 15.2 9.1 10.6 74 2.4 SSW 33 43 18 23 1014.7 1014.7 0.4
07/06:00am 15.1 9.1 10.9 76 2.2 SSW 33 43 18 23 1014.3 1014.3 0.4
07/05:30am 14.8 7.9 10.4 75 2.3 SSW 37 46 20 25 1014.0 1014.0 0.4
07/05:00am 14.7 7.6 9.5 71 2.7 SW 37 46 20 25 1013.8 1013.8 0.4
07/04:30am 14.5 7.9 11.5 82 1.6 SSW 37 48 20 26 1013.4 1013.4 0.4
07/04:00am 14.6 10.3 13.3 92 0.7 SSW 28 48 15 26 1013.2 1013.2 0.4
07/03:57am 14.3 9.9 13.0 92 0.7 SSW 28 46 15 25 1013.2 1013.2 0.4
07/03:30am 14.5 8.6 12.4 87 1.1 SSW 35 48 19 26 1013.2 1013.2 0.0
07/03:27am 15.2 10.5 13.2 88 1.1 SSW 30 48 16 26 1013.1 1013.1 0.0
07/03:00am 15.1 11.7 12.4 84 1.5 SSW 22 28 12 15 1013.2 1013.2 0.0
07/02:30am 15.4 10.2 12.7 84 1.5 SSW 32 41 17 22 1013.2 1013.2 0.0
07/02:00am 15.8 10.8 10.8 72 2.7 SW 28 33 15 18 1013.3 1013.3 0.0
07/01:30am 15.7 11.2 11.3 75 2.4 SW 26 32 14 17 1013.5 1013.5 0.0
07/01:00am 15.9 11.1 11.5 75 2.4 SSW 28 32 15 17 1013.8 1013.8 0.0
07/12:30am 15.8 12.2 11.8 77 2.2 SSW 22 28 12 15 1014.0 1014.0 0.0
07/12:00am 15.9 10.7 11.7 76 2.3 SSW 30 33 16 18 1014.0 1014.0 0.0
 
Date/Time
CDT
Temp
°C
App
Temp
°C
Dew
Point
°C
Rel
Hum
%
Delta-T
°C
Wind Press
QNH
hPa
Press
MSL
hPa
Rain since
9am
mm
Dir  Spd
km/h
Gust
km/h
Spd
kts
Gust
kts
06/11:30pm 15.9 10.7 11.5 75 2.4 SSW 30 37 16 20 1013.9 1013.9 0.0
06/11:00pm 16.0 11.1 11.4 74 2.5 SSW 28 35 15 19 1013.9 1013.9 0.0
06/10:30pm 15.9 10.9 11.1 73 2.6 SW 28 35 15 19 1013.8 1013.8 0.0
06/10:00pm 15.9 10.1 10.9 72 2.7 SSW 32 39 17 21 1013.6 1013.6 0.0
06/09:30pm 16.0 10.3 11.0 72 2.7 SW 32 37 17 20 1013.5 1013.5 0.0
06/09:00pm 16.1 10.1 10.8 71 2.8 SSW 33 39 18 21 1013.3 1013.3 0.0
06/08:30pm 16.2 10.2 10.7 70 2.9 SSW 33 41 18 22 1013.1 1013.1 0.0
06/08:00pm 16.6 10.6 10.0 65 3.5 SW 32 39 17 21 1013.0 1013.0 0.0
06/07:30pm 17.0 11.5 11.7 71 2.9 SSW 32 39 17 21 1012.7 1012.7 0.0
06/07:00pm 17.1 11.5 11.4 69 3.1 SSW 32 37 17 20 1012.6 1012.5 0.0
06/06:30pm 17.7 12.0 11.3 66 3.5 SW 32 39 17 21 1012.3 1012.2 0.0
06/06:00pm 18.1 11.9 11.4 65 3.7 SSW 35 41 19 22 1011.8 1011.7 0.0
06/05:30pm 18.0 11.3 10.9 63 3.8 SSW 37 44 20 24 1011.7 1011.6 0.0
06/05:00pm 18.3 11.2 12.1 67 3.4 SSW 41 50 22 27 1011.5 1011.4 0.0
06/04:30pm 18.5 11.4 12.3 67 3.4 SSW 41 50 22 27 1011.7 1011.6 0.0
06/04:00pm 18.5 11.1 12.3 67 3.4 SSW 43 48 23 26 1011.6 1011.5 0.0
06/03:30pm 18.8 12.2 12.5 67 3.5 SSW 39 50 21 27 1011.7 1011.6 0.0
06/03:00pm 19.3 12.9 13.3 68 3.4 SSW 39 46 21 25 1011.6 1011.5 0.0
06/02:30pm 19.4 14.0 12.9 66 3.7 SSW 33 43 18 23 1011.7 1011.6 0.0
06/02:00pm 19.7 14.3 13.9 69 3.3 SSW 35 44 19 24 1012.0 1011.9 0.0
06/01:30pm 19.6 13.5 14.0 70 3.2 SSW 39 44 21 24 1012.1 1012.0 0.0
06/01:00pm 20.1 16.4 14.0 68 3.5 SSW 26 32 14 17 1011.8 1011.7 0.0
06/12:30pm 19.6 15.6 14.0 70 3.2 SSW 28 33 15 18 1012.2 1012.1 0.0
06/12:00pm 19.7 15.8 14.3 71 3.1 SSW 28 33 15 18 1012.2 1012.1 0.0
06/11:30am 19.8 16.1 14.0 69 3.3 SSW 26 30 14 16 1012.2 1012.1 0.0
06/11:00am 20.2 17.7 15.2 73 2.9 SSW 22 28 12 15 1012.7 1012.7 0.0
06/10:30am 19.7 17.2 14.1 70 3.2 SSW 20 26 11 14 1012.5 1012.4 0.0
06/10:00am 18.8 17.4 13.4 71 3.1 SSW 13 17 7 9 1012.6 1012.5 0.0
06/09:30am 18.3 17.3 13.4 73 2.8 S 11 15 6 8 1012.6 1012.5 0.0
06/09:00am 18.2 17.4 14.1 77 2.4 SSW 11 17 6 9 1012.9 1012.9 0.0
06/08:30am 17.4 16.1 13.7 79 2.1 SW 13 19 7 10 1012.9 1012.9 0.0
06/08:00am 16.9 15.4 14.2 84 1.5 SW 15 20 8 11 1012.9 1012.9 0.0
06/07:30am 16.3 15.3 14.5 89 1.0 WSW 13 17 7 9 1012.6 1012.5 0.0
06/07:00am 15.4 14.2 14.1 92 0.7 WSW 13 15 7 8 1012.6 1012.5 0.0
06/06:30am 15.0 14.1 13.7 92 0.7 WSW 11 15 6 8 1012.6 1012.5 0.0
06/06:00am 14.7 13.0 13.6 93 0.6 WSW 15 19 8 10 1012.7 1012.7 0.0
06/05:30am 14.6 13.2 13.3 92 0.7 WSW 13 17 7 9 1012.3 1012.2 0.0
06/05:00am 14.6 13.2 13.5 93 0.6 WSW 13 17 7 9 1012.3 1012.2 0.0
06/04:30am 14.2 13.1 13.1 93 0.6 W 11 13 6 7 1012.5 1012.4 0.0
06/04:00am 13.8 12.9 12.5 92 0.7 W 9 11 5 6 1012.7 1012.7 0.0
06/03:30am 13.8 13.2 12.4 91 0.8 W 7 9 4 5 1012.7 1012.7 0.0
06/03:00am 13.7 12.7 12.3 91 0.8 W 9 11 5 6 1013.0 1013.0 0.0
06/02:30am 13.6 12.9 12.0 90 0.9 W 7 9 4 5 1013.1 1013.1 0.0
06/02:00am 13.7 13.2 11.9 89 1.0 SE 6 9 3 5 1013.4 1013.4 0.0
06/01:30am 14.1 14.8 12.1 88 1.1 CALM 0 0 0 0 1014.0 1014.0 0.0
06/01:00am 14.3 13.6 12.0 86 1.2 SE 7 9 4 5 1014.3 1014.3 0.0
06/12:30am 14.6 13.5 11.9 84 1.5 SE 9 11 5 6 1014.6 1014.6 0.0
06/12:00am 15.0 13.6 12.1 83 1.6 SSE 11 13 6 7 1015.3 1015.3 0.0
 
Date/Time
CDT
Temp
°C
App
Temp
°C
Dew
Point
°C
Rel
Hum
%
Delta-T
°C
Wind Press
QNH
hPa
Press
MSL
hPa
Rain since
9am
mm
Dir  Spd
km/h
Gust
km/h
Spd
kts
Gust
kts
05/11:30pm 15.2 13.1 12.3 83 1.6 SSE 15 17 8 9 1015.5 1015.5 0.0
05/11:00pm 15.4 13.0 12.5 83 1.6 SSE 17 20 9 11 1015.6 1015.6 0.0
05/10:30pm 15.4 12.9 12.2 81 1.7 SSE 17 19 9 10 1015.9 1015.9 0.0
05/10:00pm 15.6 12.7 12.4 81 1.8 SSE 19 20 10 11 1016.0 1016.0 0.0
05/09:30pm 15.8 12.9 12.2 79 2.0 SSE 19 22 10 12 1016.0 1016.0 0.0
05/09:00pm 15.9 12.8 12.3 79 2.0 SSE 20 24 11 13 1016.0 1016.0 0.0
05/08:30pm 16.1 12.6 12.1 77 2.2 SSE 22 28 12 15 1016.2 1016.2 0.0
05/08:00pm 16.3 12.5 12.3 77 2.2 SSE 24 30 13 16 1016.2 1016.2 0.0
05/07:30pm 16.4 12.0 11.8 74 2.5 SSE 26 32 14 17 1016.2 1016.2 0.0
05/07:00pm 17.0 12.3 11.9 72 2.8 SSE 28 33 15 18 1016.2 1016.2 0.0
05/06:30pm 17.2 11.9 11.2 68 3.2 SSE 30 35 16 19 1016.0 1016.0 0.0
05/06:00pm 16.9 11.2 11.2 69 3.1 SSE 32 35 17 19 1016.1 1016.1 0.0
05/05:30pm 16.8 11.6 11.5 71 2.9 S 30 33 16 18 1016.4 1016.4 0.0
05/05:00pm 17.4 12.1 11.4 68 3.3 S 30 33 16 18 1016.9 1016.9 0.0
05/04:30pm 17.7 12.5 11.7 68 3.3 S 30 35 16 19 1017.1 1017.1 0.0
05/04:00pm 18.4 12.8 11.5 64 3.8 S 32 35 17 19 1017.0 1017.0 0.0
05/03:30pm 18.3 13.0 11.1 63 3.9 S 30 33 16 18 1017.4 1017.4 0.0
05/03:00pm 17.3 12.1 10.4 64 3.7 SSE 28 33 15 18 1017.9 1017.9 0.0
05/02:30pm 19.4 14.4 10.9 58 4.6 SSE 28 35 15 19 1018.1 1018.1 0.0
05/02:00pm 17.4 11.8 10.3 63 3.8 SSE 30 35 16 19 1018.2 1018.2 0.0
05/01:30pm 17.7 12.1 10.1 61 4.0 SSE 30 35 16 19 1018.4 1018.4 0.0
05/01:00pm 19.5 14.3 11.5 60 4.4 SSE 30 35 16 19 1018.7 1018.7 0.0
05/12:30pm 18.4 12.8 10.3 59 4.3 SSE 30 37 16 20 1018.9 1018.9 0.0
05/12:00pm 18.5 13.4 10.6 60 4.2 SSE 28 33 15 18 1019.3 1019.3 0.0
05/11:30am 18.7 14.9 11.0 61 4.2 SE 22 30 12 16 1019.7 1019.7 0.0
05/11:00am 19.4 15.9 8.7 50 5.6 E 17 24 9 13 1020.1 1020.1 0.0
05/10:30am 19.2 16.2 9.4 53 5.2 NE 15 22 8 12 1020.6 1020.6 0.0
05/10:00am 18.3 15.2 8.8 54 4.9 ENE 15 20 8 11 1020.9 1020.9 0.0
05/09:30am 17.2 14.2 9.1 59 4.2 NE 15 22 8 12 1021.4 1021.4 0.0
05/09:00am 18.1 14.6 8.9 55 4.8 E 17 24 9 13 1021.4 1021.4 0.0
05/08:30am 17.1 13.3 7.7 54 4.7 E 17 20 9 11 1021.4 1021.4 0.0
05/08:00am 16.2 12.0 8.2 59 4.1 E 20 26 11 14 1021.4 1021.4 0.0
05/07:30am 15.4 10.5 8.4 63 3.5 E 24 30 13 16 1021.3 1021.3 0.0
05/07:00am 14.2 10.2 9.0 71 2.6 E 20 26 11 14 1021.1 1021.1 0.0
05/06:30am 13.4 10.0 9.3 76 2.1 E 17 26 9 14 1021.2 1021.2 0.0
05/06:00am 13.4 9.6 8.9 74 2.3 E 19 26 10 14 1021.0 1021.0 0.0
05/05:30am 13.8 10.9 9.5 75 2.2 E 15 20 8 11 1020.7 1020.7 0.0
05/05:00am 13.8 10.5 9.6 76 2.2 ENE 17 22 9 12 1020.7 1020.7 0.0
05/04:30am 13.9 10.1 9.9 77 2.1 ENE 20 26 11 14 1020.5 1020.5 0.0
05/04:00am 15.4 11.2 11.2 76 2.2 SE 24 32 13 17 1020.1 1020.1 0.0
05/03:30am 15.2 10.9 10.8 75 2.3 SE 24 28 13 15 1020.2 1020.2 0.0
05/03:00am 15.2 10.9 10.8 75 2.3 SE 24 32 13 17 1020.1 1020.1 0.0
05/02:30am 15.2 10.6 11.2 77 2.1 SE 26 32 14 17 1020.4 1020.4 0.0
05/02:00am 15.2 11.3 10.8 75 2.3 SSE 22 28 12 15 1021.2 1021.2 0.0
05/01:30am 15.2 10.9 10.8 75 2.3 SSE 24 30 13 16 1021.5 1021.5 0.0
05/01:00am 15.3 11.2 11.3 77 2.1 SSE 24 32 13 17 1021.7 1021.7 0.0
05/12:30am 15.2 10.8 10.4 73 2.5 SSE 24 30 13 16 1021.8 1021.8 0.0
05/12:00am 15.3 10.7 10.9 75 2.3 SSE 26 32 14 17 1021.9 1021.9 0.0
 
Date/Time
CDT
Temp
°C
App
Temp
°C
Dew
Point
°C
Rel
Hum
%
Delta-T
°C
Wind Press
QNH
hPa
Press
MSL
hPa
Rain since
9am
mm
Dir  Spd
km/h
Gust
km/h
Spd
kts
Gust
kts
04/11:30pm 15.2 10.5 10.8 75 2.3 SSE 26 32 14 17 1022.2 1022.2 0.0
04/11:00pm 15.4 11.0 11.6 78 2.0 SSE 26 32 14 17 1022.2 1022.2 0.0
04/10:30pm 15.3 10.3 10.9 75 2.3 SSE 28 33 15 18 1022.2 1022.2 0.0
04/10:00pm 15.3 10.2 10.5 73 2.5 SSE 28 32 15 17 1022.4 1022.4 0.0
04/09:30pm 15.5 10.8 10.7 73 2.5 SSE 26 32 14 17 1022.3 1022.3 0.0
04/09:00pm 15.4 10.6 10.4 72 2.6 S 26 32 14 17 1022.2 1022.2 0.0
04/08:30pm 15.5 10.3 10.3 71 2.7 S 28 32 15 17 1022.2 1022.2 0.0
04/08:00pm 15.8 10.6 10.3 70 2.9 S 28 33 15 18 1022.1 1022.1 0.0
04/07:30pm 16.1 11.5 9.8 66 3.3 S 24 30 13 16 1022.2 1022.2 0.0
04/07:00pm 16.4 11.8 9.6 64 3.5 S 24 30 13 16 1021.9 1021.9 0.0
04/06:30pm 17.0 12.3 10.6 66 3.4 S 26 32 14 17 1021.6 1021.6 0.0
04/06:00pm 17.8 13.2 10.9 64 3.7 S 26 33 14 18 1021.3 1021.3 0.0
04/05:30pm 17.7 12.8 10.1 61 4.0 S 26 33 14 18 1021.6 1021.6 0.0
04/05:00pm 18.2 13.4 10.3 60 4.2 SSW 26 33 14 18 1022.0 1022.0 0.0
04/04:30pm 17.7 12.7 10.8 64 3.7 S 28 33 15 18 1022.0 1022.0 0.0
04/04:00pm 18.4 13.1 10.0 58 4.5 SSW 28 33 15 18 1022.3 1022.3 0.0
04/03:30pm 19.1 14.1 10.9 59 4.4 SSW 28 35 15 19 1022.4 1022.4 0.0
04/03:00pm 19.0 13.4 8.9 52 5.3 SSW 28 35 15 19 1022.6 1022.6 0.0
04/02:30pm 19.4 14.3 10.7 57 4.7 SSW 28 35 15 19 1022.7 1022.7 0.0
04/02:00pm 18.7 13.7 9.5 55 4.9 S 26 32 14 17 1023.0 1023.0 0.0
04/01:30pm 18.5 13.8 9.3 55 4.8 S 24 32 13 17 1023.3 1023.3 0.0
04/01:00pm 17.2 14.4 9.9 62 3.8 S 15 19 8 10 1023.7 1023.7 0.0
04/12:30pm 17.3 13.1 9.7 61 4.0 SSW 22 30 12 16 1023.6 1023.6 0.0
04/12:00pm 18.6 14.8 9.7 56 4.7 S 20 28 11 15 1023.6 1023.6 0.0
04/11:30am 17.8 14.3 10.2 61 4.0 SSW 19 26 10 14 1023.7 1023.7 0.0
04/11:00am 17.0 13.1 9.4 61 4.0 S 20 26 11 14 1023.8 1023.8 0.0
04/10:30am 16.9 12.4 10.1 64 3.6 S 24 32 13 17 1023.6 1023.6 0.0
04/10:00am 16.8 12.0 9.0 60 4.0 SSW 24 30 13 16 1023.5 1023.5 0.0
04/09:30am 16.6 11.7 8.6 59 4.1 S 24 30 13 16 1023.5 1023.5 0.0
04/09:00am 17.2 11.0 7.8 54 4.7 S 30 35 16 19 1023.2 1023.2 0.0
04/08:30am 16.1 9.9 7.8 58 4.1 S 30 35 16 19 1022.9 1022.9 0.0
04/08:00am 15.6 10.7 8.6 63 3.6 SSW 24 30 13 16 1022.7 1022.7 0.0
04/07:30am 15.7 11.6 8.7 63 3.6 S 20 26 11 14 1022.4 1022.4 0.0

Other formats

Comma delimited format used in spreadsheet applications
http://www.bom.gov.au/fwo/IDS60801/IDS60801.94677.axf

JavaScript Object Notation format (JSON) in row-major order
http://www.bom.gov.au/fwo/IDS60801/IDS60801.94677.json

Data quality

Most of these data are generated automatically and are frequently updated. Quality checks on data are not normally performed. It is possible for incorrect values to appear. Refer to information at About Latest Weather Observations and please check the disclaimer before using these data.